sensor_id;sensor_type;location;lat;lon;timestamp;P1;durP1;ratioP1;P2;durP2;ratioP2
60308;SDS011;50313;52.894;6.492;2024-03-02T00:00:01;3.63;;;1.73;;
60308;SDS011;50313;52.894;6.492;2024-03-02T00:02:39;6.25;;;1.75;;
60308;SDS011;50313;52.894;6.492;2024-03-02T00:05:12;3.42;;;1.50;;
60308;SDS011;50313;52.894;6.492;2024-03-02T00:07:41;1.63;;;1.38;;
60308;SDS011;50313;52.894;6.492;2024-03-02T00:10:09;1.55;;;1.45;;
60308;SDS011;50313;52.894;6.492;2024-03-02T00:12:37;4.50;;;1.95;;
60308;SDS011;50313;52.894;6.492;2024-03-02T00:15:05;3.35;;;2.35;;
60308;SDS011;50313;52.894;6.492;2024-03-02T00:17:43;4.47;;;2.00;;
60308;SDS011;50313;52.894;6.492;2024-03-02T00:20:18;1.48;;;1.10;;
60308;SDS011;50313;52.894;6.492;2024-03-02T00:22:48;2.22;;;1.55;;
60308;SDS011;50313;52.894;6.492;2024-03-02T00:25:14;3.03;;;1.40;;
60308;SDS011;50313;52.894;6.492;2024-03-02T00:27:39;1.60;;;1.42;;
60308;SDS011;50313;52.894;6.492;2024-03-02T00:32:59;3.58;;;1.55;;
60308;SDS011;50313;52.894;6.492;2024-03-02T00:35:25;1.92;;;1.38;;
60308;SDS011;50313;52.894;6.492;2024-03-02T00:37:51;2.38;;;1.63;;
60308;SDS011;50313;52.894;6.492;2024-03-02T00:40:16;2.63;;;1.80;;
60308;SDS011;50313;52.894;6.492;2024-03-02T00:42:44;1.65;;;1.40;;
60308;SDS011;50313;52.894;6.492;2024-03-02T00:45:10;3.10;;;1.98;;
60308;SDS011;50313;52.894;6.492;2024-03-02T00:47:41;3.72;;;1.63;;
60308;SDS011;50313;52.894;6.492;2024-03-02T00:50:07;1.38;;;1.05;;
60308;SDS011;50313;52.894;6.492;2024-03-02T00:52:34;2.20;;;1.40;;
60308;SDS011;50313;52.894;6.492;2024-03-02T00:55:00;1.83;;;1.50;;
60308;SDS011;50313;52.894;6.492;2024-03-02T00:57:27;1.50;;;1.40;;
60308;SDS011;50313;52.894;6.492;2024-03-02T00:59:56;2.08;;;1.30;;
60308;SDS011;50313;52.894;6.492;2024-03-02T01:02:22;1.95;;;1.40;;
60308;SDS011;50313;52.894;6.492;2024-03-02T01:04:48;6.35;;;1.45;;
60308;SDS011;50313;52.894;6.492;2024-03-02T01:07:13;1.92;;;1.65;;
60308;SDS011;50313;52.894;6.492;2024-03-02T01:09:39;2.30;;;1.63;;
60308;SDS011;50313;52.894;6.492;2024-03-02T01:12:06;2.70;;;1.65;;
60308;SDS011;50313;52.894;6.492;2024-03-02T01:14:32;2.35;;;1.55;;
60308;SDS011;50313;52.894;6.492;2024-03-02T01:16:58;2.78;;;1.88;;
60308;SDS011;50313;52.894;6.492;2024-03-02T01:19:23;1.70;;;1.35;;
60308;SDS011;50313;52.894;6.492;2024-03-02T01:21:49;1.23;;;1.13;;
60308;SDS011;50313;52.894;6.492;2024-03-02T01:24:15;4.88;;;1.58;;
60308;SDS011;50313;52.894;6.492;2024-03-02T01:26:41;3.85;;;1.40;;
60308;SDS011;50313;52.894;6.492;2024-03-02T01:29:07;4.15;;;1.77;;
60308;SDS011;50313;52.894;6.492;2024-03-02T01:31:33;1.25;;;1.00;;
60308;SDS011;50313;52.894;6.492;2024-03-02T01:33:58;2.10;;;1.55;;
60308;SDS011;50313;52.894;6.492;2024-03-02T01:36:24;2.60;;;1.90;;
60308;SDS011;50313;52.894;6.492;2024-03-02T01:38:50;1.35;;;1.20;;
60308;SDS011;50313;52.894;6.492;2024-03-02T01:41:15;2.00;;;1.38;;
60308;SDS011;50313;52.894;6.492;2024-03-02T01:43:41;3.05;;;1.42;;
60308;SDS011;50313;52.894;6.492;2024-03-02T01:46:07;4.45;;;1.70;;
60308;SDS011;50313;52.894;6.492;2024-03-02T01:48:34;1.75;;;1.40;;
60308;SDS011;50313;52.894;6.492;2024-03-02T01:51:00;3.15;;;1.63;;
60308;SDS011;50313;52.894;6.492;2024-03-02T01:53:26;2.05;;;1.25;;
60308;SDS011;50313;52.894;6.492;2024-03-02T01:55:53;1.95;;;1.55;;
60308;SDS011;50313;52.894;6.492;2024-03-02T01:58:18;1.30;;;1.20;;
60308;SDS011;50313;52.894;6.492;2024-03-02T02:00:44;4.22;;;1.42;;
60308;SDS011;50313;52.894;6.492;2024-03-02T02:03:10;1.83;;;0.93;;
60308;SDS011;50313;52.894;6.492;2024-03-02T02:05:36;1.35;;;1.23;;
60308;SDS011;50313;52.894;6.492;2024-03-02T02:08:01;4.07;;;1.63;;
60308;SDS011;50313;52.894;6.492;2024-03-02T02:10:27;1.33;;;1.23;;
60308;SDS011;50313;52.894;6.492;2024-03-02T02:12:53;1.88;;;1.55;;
60308;SDS011;50313;52.894;6.492;2024-03-02T02:17:52;2.08;;;1.60;;
60308;SDS011;50313;52.894;6.492;2024-03-02T02:20:18;1.77;;;1.20;;
60308;SDS011;50313;52.894;6.492;2024-03-02T02:22:56;3.47;;;2.03;;
60308;SDS011;50313;52.894;6.492;2024-03-02T02:25:23;1.80;;;1.30;;
60308;SDS011;50313;52.894;6.492;2024-03-02T02:27:49;3.33;;;1.98;;
60308;SDS011;50313;52.894;6.492;2024-03-02T02:30:22;1.50;;;1.30;;
60308;SDS011;50313;52.894;6.492;2024-03-02T02:32:51;3.70;;;2.00;;
60308;SDS011;50313;52.894;6.492;2024-03-02T02:35:17;1.95;;;1.77;;
60308;SDS011;50313;52.894;6.492;2024-03-02T02:37:43;2.58;;;1.60;;
60308;SDS011;50313;52.894;6.492;2024-03-02T02:40:11;2.00;;;1.33;;
60308;SDS011;50313;52.894;6.492;2024-03-02T02:42:38;3.25;;;1.23;;
60308;SDS011;50313;52.894;6.492;2024-03-02T02:45:05;5.13;;;1.50;;
60308;SDS011;50313;52.894;6.492;2024-03-02T02:47:31;8.95;;;1.80;;
60308;SDS011;50313;52.894;6.492;2024-03-02T02:50:00;5.28;;;1.20;;
60308;SDS011;50313;52.894;6.492;2024-03-02T02:52:36;1.98;;;1.35;;
60308;SDS011;50313;52.894;6.492;2024-03-02T02:55:04;2.83;;;1.58;;
60308;SDS011;50313;52.894;6.492;2024-03-02T02:57:35;1.77;;;1.40;;
60308;SDS011;50313;52.894;6.492;2024-03-02T03:00:12;1.30;;;1.17;;
60308;SDS011;50313;52.894;6.492;2024-03-02T03:02:40;2.05;;;0.95;;
60308;SDS011;50313;52.894;6.492;2024-03-02T03:05:15;1.63;;;1.30;;
60308;SDS011;50313;52.894;6.492;2024-03-02T03:07:41;2.53;;;1.35;;
60308;SDS011;50313;52.894;6.492;2024-03-02T03:10:09;2.70;;;1.25;;
60308;SDS011;50313;52.894;6.492;2024-03-02T03:12:35;1.10;;;1.00;;
60308;SDS011;50313;52.894;6.492;2024-03-02T03:15:01;2.05;;;1.08;;
60308;SDS011;50313;52.894;6.492;2024-03-02T03:17:26;1.23;;;1.10;;
60308;SDS011;50313;52.894;6.492;2024-03-02T03:19:52;1.30;;;1.20;;
60308;SDS011;50313;52.894;6.492;2024-03-02T03:22:18;1.50;;;1.20;;
60308;SDS011;50313;52.894;6.492;2024-03-02T03:24:44;1.38;;;1.23;;
60308;SDS011;50313;52.894;6.492;2024-03-02T03:27:10;2.25;;;1.60;;
60308;SDS011;50313;52.894;6.492;2024-03-02T03:29:38;5.88;;;1.15;;
60308;SDS011;50313;52.894;6.492;2024-03-02T03:32:04;3.08;;;1.45;;
60308;SDS011;50313;52.894;6.492;2024-03-02T03:34:35;1.63;;;1.38;;
60308;SDS011;50313;52.894;6.492;2024-03-02T03:37:00;3.33;;;2.13;;
60308;SDS011;50313;52.894;6.492;2024-03-02T03:39:27;5.43;;;1.60;;
60308;SDS011;50313;52.894;6.492;2024-03-02T03:41:53;1.88;;;1.30;;
60308;SDS011;50313;52.894;6.492;2024-03-02T03:44:19;6.18;;;1.55;;
60308;SDS011;50313;52.894;6.492;2024-03-02T03:46:45;1.67;;;1.15;;
60308;SDS011;50313;52.894;6.492;2024-03-02T03:49:10;1.55;;;1.30;;
60308;SDS011;50313;52.894;6.492;2024-03-02T03:51:36;2.67;;;1.70;;
60308;SDS011;50313;52.894;6.492;2024-03-02T03:54:02;2.40;;;1.33;;
60308;SDS011;50313;52.894;6.492;2024-03-02T03:56:28;3.50;;;1.60;;
60308;SDS011;50313;52.894;6.492;2024-03-02T03:58:53;1.90;;;1.25;;
60308;SDS011;50313;52.894;6.492;2024-03-02T04:01:19;1.63;;;1.38;;
60308;SDS011;50313;52.894;6.492;2024-03-02T04:03:47;1.33;;;1.23;;
60308;SDS011;50313;52.894;6.492;2024-03-02T04:06:13;1.25;;;1.15;;
60308;SDS011;50313;52.894;6.492;2024-03-02T04:08:39;2.40;;;1.67;;
60308;SDS011;50313;52.894;6.492;2024-03-02T04:11:06;2.40;;;1.60;;
60308;SDS011;50313;52.894;6.492;2024-03-02T04:13:32;1.77;;;1.20;;
60308;SDS011;50313;52.894;6.492;2024-03-02T04:15:58;3.00;;;1.65;;
60308;SDS011;50313;52.894;6.492;2024-03-02T04:18:24;3.42;;;1.70;;
60308;SDS011;50313;52.894;6.492;2024-03-02T04:20:50;3.17;;;1.88;;
60308;SDS011;50313;52.894;6.492;2024-03-02T04:23:16;2.08;;;1.67;;
60308;SDS011;50313;52.894;6.492;2024-03-02T04:25:41;6.07;;;1.55;;
60308;SDS011;50313;52.894;6.492;2024-03-02T04:28:07;2.33;;;1.70;;
60308;SDS011;50313;52.894;6.492;2024-03-02T04:30:33;1.95;;;1.33;;
60308;SDS011;50313;52.894;6.492;2024-03-02T04:32:59;2.13;;;1.55;;
60308;SDS011;50313;52.894;6.492;2024-03-02T04:35:24;1.15;;;1.05;;
60308;SDS011;50313;52.894;6.492;2024-03-02T04:37:50;2.67;;;1.60;;
60308;SDS011;50313;52.894;6.492;2024-03-02T04:40:16;1.90;;;1.38;;
60308;SDS011;50313;52.894;6.492;2024-03-02T04:42:42;4.07;;;1.88;;
60308;SDS011;50313;52.894;6.492;2024-03-02T04:45:08;3.95;;;1.80;;
60308;SDS011;50313;52.894;6.492;2024-03-02T04:47:34;1.95;;;1.17;;
60308;SDS011;50313;52.894;6.492;2024-03-02T04:50:00;1.67;;;1.05;;
60308;SDS011;50313;52.894;6.492;2024-03-02T04:52:25;1.30;;;1.20;;
60308;SDS011;50313;52.894;6.492;2024-03-02T04:54:51;4.82;;;1.23;;
60308;SDS011;50313;52.894;6.492;2024-03-02T04:57:48;1.98;;;1.27;;
60308;SDS011;50313;52.894;6.492;2024-03-02T05:00:16;6.85;;;1.85;;
60308;SDS011;50313;52.894;6.492;2024-03-02T05:02:42;3.13;;;1.52;;
60308;SDS011;50313;52.894;6.492;2024-03-02T05:05:08;1.73;;;1.40;;
60308;SDS011;50313;52.894;6.492;2024-03-02T05:07:33;1.90;;;1.23;;
60308;SDS011;50313;52.894;6.492;2024-03-02T05:09:59;1.40;;;1.30;;
60308;SDS011;50313;52.894;6.492;2024-03-02T05:12:25;2.80;;;1.52;;
60308;SDS011;50313;52.894;6.492;2024-03-02T05:15:14;2.35;;;2.05;;
60308;SDS011;50313;52.894;6.492;2024-03-02T05:17:40;2.88;;;1.58;;
60308;SDS011;50313;52.894;6.492;2024-03-02T05:20:09;2.35;;;1.25;;
60308;SDS011;50313;52.894;6.492;2024-03-02T05:22:54;5.85;;;1.65;;
60308;SDS011;50313;52.894;6.492;2024-03-02T05:25:20;2.13;;;1.40;;
60308;SDS011;50313;52.894;6.492;2024-03-02T05:27:45;3.35;;;1.70;;
60308;SDS011;50313;52.894;6.492;2024-03-02T05:30:11;3.15;;;1.85;;
60308;SDS011;50313;52.894;6.492;2024-03-02T05:32:37;1.60;;;1.30;;
60308;SDS011;50313;52.894;6.492;2024-03-02T05:35:03;3.15;;;1.98;;
60308;SDS011;50313;52.894;6.492;2024-03-02T05:37:30;3.38;;;1.50;;
60308;SDS011;50313;52.894;6.492;2024-03-02T05:39:55;2.88;;;1.58;;
60308;SDS011;50313;52.894;6.492;2024-03-02T05:42:21;2.13;;;1.80;;
60308;SDS011;50313;52.894;6.492;2024-03-02T05:44:47;9.38;;;2.28;;
60308;SDS011;50313;52.894;6.492;2024-03-02T05:47:13;1.30;;;1.00;;
60308;SDS011;50313;52.894;6.492;2024-03-02T05:49:39;2.00;;;1.48;;
60308;SDS011;50313;52.894;6.492;2024-03-02T05:52:04;3.20;;;1.90;;
60308;SDS011;50313;52.894;6.492;2024-03-02T05:54:30;1.67;;;1.33;;
60308;SDS011;50313;52.894;6.492;2024-03-02T05:56:56;1.63;;;1.48;;
60308;SDS011;50313;52.894;6.492;2024-03-02T05:59:21;2.53;;;1.65;;
60308;SDS011;50313;52.894;6.492;2024-03-02T06:01:47;2.15;;;1.30;;
60308;SDS011;50313;52.894;6.492;2024-03-02T06:04:15;3.85;;;1.50;;
60308;SDS011;50313;52.894;6.492;2024-03-02T06:06:41;3.38;;;1.58;;
60308;SDS011;50313;52.894;6.492;2024-03-02T06:09:07;1.85;;;1.42;;
60308;SDS011;50313;52.894;6.492;2024-03-02T06:11:36;2.28;;;1.67;;
60308;SDS011;50313;52.894;6.492;2024-03-02T06:14:05;3.15;;;1.50;;
60308;SDS011;50313;52.894;6.492;2024-03-02T06:16:32;1.33;;;0.95;;
60308;SDS011;50313;52.894;6.492;2024-03-02T06:18:58;1.58;;;1.27;;
60308;SDS011;50313;52.894;6.492;2024-03-02T06:21:24;1.38;;;1.13;;
60308;SDS011;50313;52.894;6.492;2024-03-02T06:23:50;1.15;;;1.02;;
60308;SDS011;50313;52.894;6.492;2024-03-02T06:26:16;1.20;;;1.10;;
60308;SDS011;50313;52.894;6.492;2024-03-02T06:28:43;1.58;;;1.40;;
60308;SDS011;50313;52.894;6.492;2024-03-02T06:31:09;1.15;;;0.90;;
60308;SDS011;50313;52.894;6.492;2024-03-02T06:33:35;1.38;;;1.20;;
60308;SDS011;50313;52.894;6.492;2024-03-02T06:36:01;2.03;;;1.15;;
60308;SDS011;50313;52.894;6.492;2024-03-02T06:38:27;2.30;;;1.65;;
60308;SDS011;50313;52.894;6.492;2024-03-02T06:40:53;3.83;;;0.98;;
60308;SDS011;50313;52.894;6.492;2024-03-02T06:43:22;3.70;;;1.85;;
60308;SDS011;50313;52.894;6.492;2024-03-02T06:45:48;4.22;;;1.77;;
60308;SDS011;50313;52.894;6.492;2024-03-02T06:48:17;2.03;;;1.02;;
60308;SDS011;50313;52.894;6.492;2024-03-02T06:50:48;1.10;;;0.98;;
60308;SDS011;50313;52.894;6.492;2024-03-02T06:53:15;0.70;;;0.70;;
60308;SDS011;50313;52.894;6.492;2024-03-02T06:55:45;0.70;;;0.70;;
60308;SDS011;50313;52.894;6.492;2024-03-02T06:58:14;0.60;;;0.60;;
60308;SDS011;50313;52.894;6.492;2024-03-02T07:00:41;1.35;;;0.57;;
60308;SDS011;50313;52.894;6.492;2024-03-02T07:03:07;0.63;;;0.63;;
60308;SDS011;50313;52.894;6.492;2024-03-02T07:05:33;1.25;;;0.98;;
60308;SDS011;50313;52.894;6.492;2024-03-02T07:07:59;0.85;;;0.68;;
60308;SDS011;50313;52.894;6.492;2024-03-02T07:10:26;0.85;;;0.70;;
60308;SDS011;50313;52.894;6.492;2024-03-02T07:12:52;0.40;;;0.40;;
60308;SDS011;50313;52.894;6.492;2024-03-02T07:15:18;0.50;;;0.50;;
60308;SDS011;50313;52.894;6.492;2024-03-02T07:20:28;0.50;;;0.50;;
60308;SDS011;50313;52.894;6.492;2024-03-02T07:22:54;0.80;;;0.80;;
60308;SDS011;50313;52.894;6.492;2024-03-02T07:25:20;0.47;;;0.47;;
60308;SDS011;50313;52.894;6.492;2024-03-02T07:27:45;0.45;;;0.45;;
60308;SDS011;50313;52.894;6.492;2024-03-02T07:30:13;0.50;;;0.50;;
60308;SDS011;50313;52.894;6.492;2024-03-02T07:32:41;1.38;;;0.60;;
60308;SDS011;50313;52.894;6.492;2024-03-02T07:35:10;0.50;;;0.50;;
60308;SDS011;50313;52.894;6.492;2024-03-02T07:37:41;0.60;;;0.60;;
60308;SDS011;50313;52.894;6.492;2024-03-02T07:40:07;1.73;;;0.50;;
60308;SDS011;50313;52.894;6.492;2024-03-02T07:42:37;0.93;;;0.88;;
60308;SDS011;50313;52.894;6.492;2024-03-02T07:45:04;3.00;;;0.60;;
60308;SDS011;50313;52.894;6.492;2024-03-02T07:47:30;0.90;;;0.50;;
60308;SDS011;50313;52.894;6.492;2024-03-02T07:49:56;0.57;;;0.50;;
60308;SDS011;50313;52.894;6.492;2024-03-02T07:52:22;0.60;;;0.60;;
60308;SDS011;50313;52.894;6.492;2024-03-02T07:54:47;0.47;;;0.45;;
60308;SDS011;50313;52.894;6.492;2024-03-02T07:57:13;0.70;;;0.70;;
60308;SDS011;50313;52.894;6.492;2024-03-02T07:59:39;1.27;;;0.70;;
60308;SDS011;50313;52.894;6.492;2024-03-02T08:02:05;0.63;;;0.63;;
60308;SDS011;50313;52.894;6.492;2024-03-02T08:04:31;0.70;;;0.70;;
60308;SDS011;50313;52.894;6.492;2024-03-02T08:06:57;0.52;;;0.52;;
60308;SDS011;50313;52.894;6.492;2024-03-02T08:09:23;0.77;;;0.50;;
60308;SDS011;50313;52.894;6.492;2024-03-02T08:11:48;5.40;;;0.70;;
60308;SDS011;50313;52.894;6.492;2024-03-02T08:14:14;0.70;;;0.50;;
60308;SDS011;50313;52.894;6.492;2024-03-02T08:16:40;0.55;;;0.50;;
60308;SDS011;50313;52.894;6.492;2024-03-02T08:19:06;1.30;;;0.70;;
60308;SDS011;50313;52.894;6.492;2024-03-02T08:21:33;3.13;;;0.50;;
60308;SDS011;50313;52.894;6.492;2024-03-02T08:24:01;0.40;;;0.40;;
60308;SDS011;50313;52.894;6.492;2024-03-02T08:26:27;0.40;;;0.40;;
60308;SDS011;50313;52.894;6.492;2024-03-02T08:28:57;0.43;;;0.43;;
60308;SDS011;50313;52.894;6.492;2024-03-02T08:31:23;0.50;;;0.50;;
60308;SDS011;50313;52.894;6.492;2024-03-02T08:33:49;2.50;;;0.55;;
60308;SDS011;50313;52.894;6.492;2024-03-02T08:36:15;5.05;;;0.45;;
60308;SDS011;50313;52.894;6.492;2024-03-02T08:38:41;0.63;;;0.50;;
60308;SDS011;50313;52.894;6.492;2024-03-02T08:41:07;0.40;;;0.40;;
60308;SDS011;50313;52.894;6.492;2024-03-02T08:43:33;2.33;;;0.50;;
60308;SDS011;50313;52.894;6.492;2024-03-02T08:45:59;3.03;;;0.68;;
60308;SDS011;50313;52.894;6.492;2024-03-02T08:48:25;1.20;;;0.70;;
60308;SDS011;50313;52.894;6.492;2024-03-02T08:50:50;4.78;;;0.98;;
60308;SDS011;50313;52.894;6.492;2024-03-02T08:53:16;2.92;;;0.50;;
60308;SDS011;50313;52.894;6.492;2024-03-02T08:55:44;0.50;;;0.50;;
60308;SDS011;50313;52.894;6.492;2024-03-02T08:58:11;0.90;;;0.50;;
60308;SDS011;50313;52.894;6.492;2024-03-02T09:00:37;0.50;;;0.50;;
60308;SDS011;50313;52.894;6.492;2024-03-02T09:03:03;0.40;;;0.40;;
60308;SDS011;50313;52.894;6.492;2024-03-02T09:05:29;0.40;;;0.40;;
60308;SDS011;50313;52.894;6.492;2024-03-02T09:07:54;0.80;;;0.40;;
60308;SDS011;50313;52.894;6.492;2024-03-02T09:10:20;0.43;;;0.40;;
60308;SDS011;50313;52.894;6.492;2024-03-02T09:12:46;5.07;;;1.10;;
60308;SDS011;50313;52.894;6.492;2024-03-02T09:15:12;1.23;;;0.50;;
60308;SDS011;50313;52.894;6.492;2024-03-02T09:17:38;2.15;;;0.40;;
60308;SDS011;50313;52.894;6.492;2024-03-02T09:20:04;1.27;;;0.80;;
60308;SDS011;50313;52.894;6.492;2024-03-02T09:22:30;0.55;;;0.55;;
60308;SDS011;50313;52.894;6.492;2024-03-02T09:24:57;0.88;;;0.60;;
60308;SDS011;50313;52.894;6.492;2024-03-02T09:27:23;0.68;;;0.68;;
60308;SDS011;50313;52.894;6.492;2024-03-02T09:29:49;2.55;;;0.82;;
60308;SDS011;50313;52.894;6.492;2024-03-02T09:32:15;3.20;;;0.88;;
60308;SDS011;50313;52.894;6.492;2024-03-02T09:34:41;1.50;;;0.70;;
60308;SDS011;50313;52.894;6.492;2024-03-02T09:37:06;1.45;;;0.70;;
60308;SDS011;50313;52.894;6.492;2024-03-02T09:39:33;0.60;;;0.50;;
60308;SDS011;50313;52.894;6.492;2024-03-02T09:41:58;0.40;;;0.40;;
60308;SDS011;50313;52.894;6.492;2024-03-02T09:44:25;0.43;;;0.30;;
60308;SDS011;50313;52.894;6.492;2024-03-02T09:46:51;1.02;;;0.68;;
60308;SDS011;50313;52.894;6.492;2024-03-02T09:49:17;1.63;;;0.70;;
60308;SDS011;50313;52.894;6.492;2024-03-02T09:51:52;3.60;;;0.73;;
60308;SDS011;50313;52.894;6.492;2024-03-02T09:54:18;0.85;;;0.40;;
60308;SDS011;50313;52.894;6.492;2024-03-02T09:56:44;0.98;;;0.50;;
60308;SDS011;50313;52.894;6.492;2024-03-02T09:59:10;3.08;;;0.77;;
60308;SDS011;50313;52.894;6.492;2024-03-02T10:01:36;0.63;;;0.63;;
60308;SDS011;50313;52.894;6.492;2024-03-02T10:04:01;0.90;;;0.47;;
60308;SDS011;50313;52.894;6.492;2024-03-02T10:06:28;0.82;;;0.55;;
60308;SDS011;50313;52.894;6.492;2024-03-02T10:08:54;4.88;;;1.10;;
60308;SDS011;50313;52.894;6.492;2024-03-02T10:11:31;0.68;;;0.68;;
60308;SDS011;50313;52.894;6.492;2024-03-02T10:14:05;3.97;;;0.55;;
60308;SDS011;50313;52.894;6.492;2024-03-02T10:16:35;1.95;;;1.00;;
60308;SDS011;50313;52.894;6.492;2024-03-02T10:21:47;2.45;;;0.50;;
60308;SDS011;50313;52.894;6.492;2024-03-02T10:24:14;2.33;;;0.60;;
60308;SDS011;50313;52.894;6.492;2024-03-02T10:26:40;1.63;;;0.70;;
60308;SDS011;50313;52.894;6.492;2024-03-02T10:29:10;0.38;;;0.38;;
60308;SDS011;50313;52.894;6.492;2024-03-02T10:31:39;1.13;;;0.50;;
60308;SDS011;50313;52.894;6.492;2024-03-02T10:34:07;1.63;;;0.40;;
60308;SDS011;50313;52.894;6.492;2024-03-02T10:36:36;0.90;;;0.60;;
60308;SDS011;50313;52.894;6.492;2024-03-02T10:39:06;1.27;;;0.50;;
60308;SDS011;50313;52.894;6.492;2024-03-02T10:41:33;0.40;;;0.40;;
60308;SDS011;50313;52.894;6.492;2024-03-02T10:44:03;0.80;;;0.60;;
60308;SDS011;50313;52.894;6.492;2024-03-02T10:46:31;1.20;;;0.63;;
60308;SDS011;50313;52.894;6.492;2024-03-02T10:48:58;8.82;;;1.10;;
60308;SDS011;50313;52.894;6.492;2024-03-02T10:51:28;0.60;;;0.60;;
60308;SDS011;50313;52.894;6.492;2024-03-02T10:53:59;0.50;;;0.50;;
60308;SDS011;50313;52.894;6.492;2024-03-02T11:01:57;0.55;;;0.45;;
60308;SDS011;50313;52.894;6.492;2024-03-02T11:04:24;1.15;;;0.63;;
60308;SDS011;50313;52.894;6.492;2024-03-02T11:07:06;0.47;;;0.45;;
60308;SDS011;50313;52.894;6.492;2024-03-02T11:09:35;4.10;;;0.80;;
60308;SDS011;50313;52.894;6.492;2024-03-02T11:14:40;0.45;;;0.45;;
60308;SDS011;50313;52.894;6.492;2024-03-02T11:17:13;2.97;;;0.63;;
60308;SDS011;50313;52.894;6.492;2024-03-02T11:19:43;0.50;;;0.50;;
60308;SDS011;50313;52.894;6.492;2024-03-02T11:22:10;0.68;;;0.47;;
60308;SDS011;50313;52.894;6.492;2024-03-02T11:24:37;3.60;;;0.50;;
60308;SDS011;50313;52.894;6.492;2024-03-02T11:27:03;0.82;;;0.57;;
60308;SDS011;50313;52.894;6.492;2024-03-02T11:34:44;0.57;;;0.50;;
60308;SDS011;50313;52.894;6.492;2024-03-02T11:37:20;0.85;;;0.40;;
60308;SDS011;50313;52.894;6.492;2024-03-02T11:39:46;1.85;;;0.45;;
60308;SDS011;50313;52.894;6.492;2024-03-02T11:42:14;0.63;;;0.63;;
60308;SDS011;50313;52.894;6.492;2024-03-02T11:44:41;1.58;;;0.63;;
60308;SDS011;50313;52.894;6.492;2024-03-02T11:47:12;1.60;;;0.80;;
60308;SDS011;50313;52.894;6.492;2024-03-02T11:52:07;3.13;;;0.68;;
60308;SDS011;50313;52.894;6.492;2024-03-02T11:54:35;1.38;;;0.57;;
60308;SDS011;50313;52.894;6.492;2024-03-02T11:57:06;1.65;;;0.40;;
60308;SDS011;50313;52.894;6.492;2024-03-02T11:59:33;2.05;;;0.60;;
60308;SDS011;50313;52.894;6.492;2024-03-02T12:02:00;4.68;;;0.80;;
60308;SDS011;50313;52.894;6.492;2024-03-02T12:04:26;0.50;;;0.50;;
60308;SDS011;50313;52.894;6.492;2024-03-02T12:06:55;3.05;;;0.90;;
60308;SDS011;50313;52.894;6.492;2024-03-02T12:09:25;1.17;;;0.70;;
60308;SDS011;50313;52.894;6.492;2024-03-02T12:12:07;3.25;;;0.73;;
60308;SDS011;50313;52.894;6.492;2024-03-02T12:14:35;5.65;;;0.90;;
60308;SDS011;50313;52.894;6.492;2024-03-02T12:17:02;0.95;;;0.60;;
60308;SDS011;50313;52.894;6.492;2024-03-02T12:19:28;0.82;;;0.60;;
60308;SDS011;50313;52.894;6.492;2024-03-02T12:21:58;0.82;;;0.73;;
60308;SDS011;50313;52.894;6.492;2024-03-02T12:24:28;1.45;;;0.50;;
60308;SDS011;50313;52.894;6.492;2024-03-02T12:26:54;0.77;;;0.73;;
60308;SDS011;50313;52.894;6.492;2024-03-02T12:29:21;1.10;;;1.00;;
60308;SDS011;50313;52.894;6.492;2024-03-02T12:31:51;2.95;;;1.08;;
60308;SDS011;50313;52.894;6.492;2024-03-02T12:34:18;2.33;;;0.90;;
60308;SDS011;50313;52.894;6.492;2024-03-02T12:36:45;0.68;;;0.68;;
60308;SDS011;50313;52.894;6.492;2024-03-02T12:39:13;12.77;;;1.58;;
60308;SDS011;50313;52.894;6.492;2024-03-02T12:41:40;1.20;;;1.00;;
60308;SDS011;50313;52.894;6.492;2024-03-02T12:44:06;2.05;;;0.85;;
60308;SDS011;50313;52.894;6.492;2024-03-02T12:46:32;2.72;;;1.10;;
60308;SDS011;50313;52.894;6.492;2024-03-02T12:48:58;1.30;;;1.20;;
60308;SDS011;50313;52.894;6.492;2024-03-02T12:51:33;4.40;;;1.20;;
60308;SDS011;50313;52.894;6.492;2024-03-02T12:53:59;1.42;;;1.30;;
60308;SDS011;50313;52.894;6.492;2024-03-02T12:56:26;1.70;;;1.45;;
60308;SDS011;50313;52.894;6.492;2024-03-02T12:58:55;1.65;;;1.27;;
60308;SDS011;50313;52.894;6.492;2024-03-02T13:01:21;4.38;;;1.25;;
60308;SDS011;50313;52.894;6.492;2024-03-02T13:03:50;4.03;;;1.50;;
60308;SDS011;50313;52.894;6.492;2024-03-02T13:06:17;3.95;;;1.55;;
60308;SDS011;50313;52.894;6.492;2024-03-02T13:08:44;2.95;;;0.98;;
60308;SDS011;50313;52.894;6.492;2024-03-02T13:11:11;1.77;;;0.80;;
60308;SDS011;50313;52.894;6.492;2024-03-02T13:13:37;1.48;;;0.90;;
60308;SDS011;50313;52.894;6.492;2024-03-02T13:16:07;2.33;;;1.15;;
60308;SDS011;50313;52.894;6.492;2024-03-02T13:18:40;3.50;;;0.98;;
60308;SDS011;50313;52.894;6.492;2024-03-02T13:21:07;1.75;;;1.00;;
60308;SDS011;50313;52.894;6.492;2024-03-02T13:23:33;2.65;;;0.80;;
60308;SDS011;50313;52.894;6.492;2024-03-02T13:25:59;3.30;;;0.85;;
60308;SDS011;50313;52.894;6.492;2024-03-02T13:28:25;1.35;;;1.10;;
60308;SDS011;50313;52.894;6.492;2024-03-02T13:30:51;1.85;;;1.13;;
60308;SDS011;50313;52.894;6.492;2024-03-02T13:33:17;2.97;;;1.10;;
60308;SDS011;50313;52.894;6.492;2024-03-02T13:35:56;1.55;;;0.90;;
60308;SDS011;50313;52.894;6.492;2024-03-02T13:38:22;1.50;;;0.93;;
60308;SDS011;50313;52.894;6.492;2024-03-02T13:40:48;1.55;;;1.08;;
60308;SDS011;50313;52.894;6.492;2024-03-02T13:43:17;4.50;;;1.50;;
60308;SDS011;50313;52.894;6.492;2024-03-02T13:45:44;2.28;;;1.75;;
60308;SDS011;50313;52.894;6.492;2024-03-02T13:48:10;1.48;;;1.33;;
60308;SDS011;50313;52.894;6.492;2024-03-02T13:50:36;1.40;;;1.25;;
60308;SDS011;50313;52.894;6.492;2024-03-02T13:53:02;2.35;;;1.70;;
60308;SDS011;50313;52.894;6.492;2024-03-02T13:55:28;2.78;;;1.85;;
60308;SDS011;50313;52.894;6.492;2024-03-02T13:57:54;2.80;;;2.00;;
60308;SDS011;50313;52.894;6.492;2024-03-02T14:00:20;4.20;;;2.92;;
60308;SDS011;50313;52.894;6.492;2024-03-02T14:02:46;3.35;;;2.50;;
60308;SDS011;50313;52.894;6.492;2024-03-02T14:05:12;3.80;;;2.47;;
60308;SDS011;50313;52.894;6.492;2024-03-02T14:07:38;3.70;;;2.10;;
60308;SDS011;50313;52.894;6.492;2024-03-02T14:10:04;4.78;;;2.67;;
60308;SDS011;50313;52.894;6.492;2024-03-02T14:12:30;3.20;;;2.40;;
60308;SDS011;50313;52.894;6.492;2024-03-02T14:14:56;4.32;;;2.00;;
60308;SDS011;50313;52.894;6.492;2024-03-02T14:17:27;4.38;;;1.90;;
60308;SDS011;50313;52.894;6.492;2024-03-02T14:19:53;2.20;;;1.73;;
60308;SDS011;50313;52.894;6.492;2024-03-02T14:22:19;1.65;;;1.50;;
60308;SDS011;50313;52.894;6.492;2024-03-02T14:25:03;3.33;;;1.63;;
60308;SDS011;50313;52.894;6.492;2024-03-02T14:27:29;2.17;;;1.27;;
60308;SDS011;50313;52.894;6.492;2024-03-02T14:29:55;1.88;;;1.40;;
60308;SDS011;50313;52.894;6.492;2024-03-02T14:32:21;1.73;;;1.08;;
60308;SDS011;50313;52.894;6.492;2024-03-02T14:34:47;1.45;;;1.05;;
60308;SDS011;50313;52.894;6.492;2024-03-02T14:37:14;2.65;;;1.25;;
60308;SDS011;50313;52.894;6.492;2024-03-02T14:39:40;1.52;;;1.30;;
60308;SDS011;50313;52.894;6.492;2024-03-02T14:42:06;2.45;;;1.00;;
60308;SDS011;50313;52.894;6.492;2024-03-02T14:44:32;3.10;;;1.42;;
60308;SDS011;50313;52.894;6.492;2024-03-02T14:46:59;1.67;;;0.80;;
60308;SDS011;50313;52.894;6.492;2024-03-02T14:49:29;3.33;;;1.00;;
60308;SDS011;50313;52.894;6.492;2024-03-02T14:51:55;2.78;;;1.05;;
60308;SDS011;50313;52.894;6.492;2024-03-02T14:54:21;1.25;;;1.15;;
60308;SDS011;50313;52.894;6.492;2024-03-02T14:56:46;3.45;;;1.20;;
60308;SDS011;50313;52.894;6.492;2024-03-02T14:59:13;1.10;;;0.80;;
60308;SDS011;50313;52.894;6.492;2024-03-02T15:01:39;1.67;;;1.15;;
60308;SDS011;50313;52.894;6.492;2024-03-02T15:04:04;1.40;;;1.10;;
60308;SDS011;50313;52.894;6.492;2024-03-02T15:06:30;2.83;;;1.30;;
60308;SDS011;50313;52.894;6.492;2024-03-02T15:08:56;4.20;;;1.85;;
60308;SDS011;50313;52.894;6.492;2024-03-02T15:11:22;1.45;;;1.05;;
60308;SDS011;50313;52.894;6.492;2024-03-02T15:13:50;2.58;;;1.10;;